sensor_id;sensor_type;location;lat;lon;timestamp;pressure;altitude;pressure_sealevel;temperature;humidity
70921;BME280;58572;48.110;19.838;2022-10-03T00:02:03;97569.88;;;11.65;84.37
70921;BME280;58572;48.110;19.838;2022-10-03T00:04:42;97568.41;;;11.54;85.21
70921;BME280;58572;48.110;19.838;2022-10-03T00:07:21;97553.34;;;11.42;85.30
70921;BME280;58572;48.110;19.838;2022-10-03T00:10:02;97572.09;;;11.63;84.88
70921;BME280;58572;48.110;19.838;2022-10-03T00:12:57;97561.38;;;11.52;85.82
70921;BME280;58572;48.110;19.838;2022-10-03T00:15:37;97566.63;;;11.63;84.94
70921;BME280;58572;48.110;19.838;2022-10-03T00:18:16;97555.31;;;11.56;84.82
70921;BME280;58572;48.110;19.838;2022-10-03T00:20:52;97556.50;;;11.49;85.38
70921;BME280;58572;48.110;19.838;2022-10-03T00:23:36;97557.97;;;11.61;84.78
70921;BME280;58572;48.110;19.838;2022-10-03T00:26:08;97568.94;;;11.56;84.74
70921;BME280;58572;48.110;19.838;2022-10-03T00:29:02;97538.28;;;11.31;85.45
70921;BME280;58572;48.110;19.838;2022-10-03T00:31:39;97562.56;;;11.46;84.88
70921;BME280;58572;48.110;19.838;2022-10-03T00:34:22;97556.53;;;11.12;86.39
70921;BME280;58572;48.110;19.838;2022-10-03T00:37:07;97551.06;;;11.49;84.92
70921;BME280;58572;48.110;19.838;2022-10-03T00:39:48;97559.97;;;11.55;83.82
70921;BME280;58572;48.110;19.838;2022-10-03T00:42:43;97572.38;;;11.42;85.93
70921;BME280;58572;48.110;19.838;2022-10-03T00:46:02;97571.94;;;11.54;84.96
70921;BME280;58572;48.110;19.838;2022-10-03T00:49:13;97572.63;;;10.90;86.66
70921;BME280;58572;48.110;19.838;2022-10-03T00:52:03;97574.81;;;11.25;85.49
70921;BME280;58572;48.110;19.838;2022-10-03T00:54:46;97574.25;;;10.91;87.45
70921;BME280;58572;48.110;19.838;2022-10-03T00:57:39;97538.16;;;11.04;86.35
70921;BME280;58572;48.110;19.838;2022-10-03T01:00:17;97517.78;;;11.01;85.07
70921;BME280;58572;48.110;19.838;2022-10-03T01:02:53;97520.22;;;11.03;84.97
70921;BME280;58572;48.110;19.838;2022-10-03T01:05:35;97568.00;;;11.46;85.06
70921;BME280;58572;48.110;19.838;2022-10-03T01:08:29;97572.47;;;11.37;84.78
70921;BME280;58572;48.110;19.838;2022-10-03T01:11:11;97572.38;;;11.42;84.76
70921;BME280;58572;48.110;19.838;2022-10-03T01:13:51;97588.22;;;11.22;85.54
70921;BME280;58572;48.110;19.838;2022-10-03T01:16:21;97575.84;;;11.29;85.50
70921;BME280;58572;48.110;19.838;2022-10-03T01:18:58;97576.38;;;11.31;85.82
70921;BME280;58572;48.110;19.838;2022-10-03T01:21:38;97568.94;;;10.99;85.15
70921;BME280;58572;48.110;19.838;2022-10-03T01:24:42;97577.47;;;10.50;87.42
70921;BME280;58572;48.110;19.838;2022-10-03T01:27:20;97567.41;;;11.12;85.67
70921;BME280;58572;48.110;19.838;2022-10-03T01:29:54;97579.97;;;11.27;85.32
70921;BME280;58572;48.110;19.838;2022-10-03T01:32:46;97575.56;;;10.93;86.05
70921;BME280;58572;48.110;19.838;2022-10-03T01:35:24;97565.78;;;11.11;86.10
70921;BME280;58572;48.110;19.838;2022-10-03T01:37:59;97579.75;;;11.23;85.85
70921;BME280;58572;48.110;19.838;2022-10-03T01:40:34;97576.22;;;11.04;85.96
70921;BME280;58572;48.110;19.838;2022-10-03T01:43:12;97570.34;;;11.15;85.42
70921;BME280;58572;48.110;19.838;2022-10-03T01:45:48;97527.94;;;10.96;84.71
70921;BME280;58572;48.110;19.838;2022-10-03T01:48:25;97584.69;;;11.21;85.61
70921;BME280;58572;48.110;19.838;2022-10-03T01:51:00;97576.31;;;11.17;85.59
70921;BME280;58572;48.110;19.838;2022-10-03T01:53:41;97585.78;;;11.20;85.14
70921;BME280;58572;48.110;19.838;2022-10-03T01:56:19;97586.38;;;11.17;85.97
70921;BME280;58572;48.110;19.838;2022-10-03T01:58:52;97583.72;;;11.12;85.18
70921;BME280;58572;48.110;19.838;2022-10-03T02:01:33;97580.63;;;11.00;85.51
70921;BME280;58572;48.110;19.838;2022-10-03T02:04:09;97576.81;;;11.01;85.83
70921;BME280;58572;48.110;19.838;2022-10-03T02:06:44;97542.66;;;10.52;85.68
70921;BME280;58572;48.110;19.838;2022-10-03T02:09:24;97563.19;;;10.10;86.92
70921;BME280;58572;48.110;19.838;2022-10-03T02:12:01;97587.00;;;10.71;86.67
70921;BME280;58572;48.110;19.838;2022-10-03T02:14:39;97586.28;;;10.84;86.11
70921;BME280;58572;48.110;19.838;2022-10-03T02:17:19;97586.50;;;10.88;85.68
70921;BME280;58572;48.110;19.838;2022-10-03T02:19:58;97587.38;;;10.83;85.65
70921;BME280;58572;48.110;19.838;2022-10-03T02:22:29;97591.22;;;10.82;85.76
70921;BME280;58572;48.110;19.838;2022-10-03T02:25:20;97593.53;;;10.22;86.72
70921;BME280;58572;48.110;19.838;2022-10-03T02:34:05;97586.41;;;10.74;85.50
70921;BME280;58572;48.110;19.838;2022-10-03T02:36:51;97592.38;;;10.76;84.99
70921;BME280;58572;48.110;19.838;2022-10-03T02:46:03;97600.72;;;10.61;86.35
70921;BME280;58572;48.110;19.838;2022-10-03T02:49:01;97600.59;;;10.71;84.86
70921;BME280;58572;48.110;19.838;2022-10-03T02:51:48;97613.09;;;10.72;84.40
70921;BME280;58572;48.110;19.838;2022-10-03T02:57:54;97616.59;;;10.25;83.16
70921;BME280;58572;48.110;19.838;2022-10-03T03:00:59;97609.81;;;10.51;86.09
70921;BME280;58572;48.110;19.838;2022-10-03T03:03:51;97605.94;;;10.58;85.01
70921;BME280;58572;48.110;19.838;2022-10-03T03:07:01;97610.44;;;10.43;85.87
70921;BME280;58572;48.110;19.838;2022-10-03T03:09:56;97600.22;;;10.59;85.48
70921;BME280;58572;48.110;19.838;2022-10-03T03:16:02;97612.19;;;10.58;83.70
70921;BME280;58572;48.110;19.838;2022-10-03T03:18:38;97619.34;;;10.49;85.43
70921;BME280;58572;48.110;19.838;2022-10-03T03:21:14;97611.34;;;10.34;85.26
70921;BME280;58572;48.110;19.838;2022-10-03T03:24:07;97623.69;;;10.50;86.01
70921;BME280;58572;48.110;19.838;2022-10-03T03:27:05;97618.44;;;10.30;85.95
70921;BME280;58572;48.110;19.838;2022-10-03T03:29:42;97624.78;;;10.49;85.74
70921;BME280;58572;48.110;19.838;2022-10-03T03:32:22;97626.63;;;10.53;84.87
70921;BME280;58572;48.110;19.838;2022-10-03T03:35:00;97622.59;;;10.51;84.57
70921;BME280;58572;48.110;19.838;2022-10-03T03:37:33;97617.94;;;10.28;85.49
70921;BME280;58572;48.110;19.838;2022-10-03T03:40:15;97631.31;;;10.48;85.11
70921;BME280;58572;48.110;19.838;2022-10-03T03:43:05;97627.28;;;10.45;84.91
70921;BME280;58572;48.110;19.838;2022-10-03T03:45:52;97633.00;;;10.44;85.21
70921;BME280;58572;48.110;19.838;2022-10-03T03:51:32;97622.31;;;10.23;85.94
70921;BME280;58572;48.110;19.838;2022-10-03T03:54:19;97581.78;;;9.98;85.53
70921;BME280;58572;48.110;19.838;2022-10-03T04:00:12;97643.75;;;10.25;85.52
70921;BME280;58572;48.110;19.838;2022-10-03T04:03:05;97633.44;;;9.93;86.50
70921;BME280;58572;48.110;19.838;2022-10-03T04:05:56;97626.25;;;10.07;86.21
70921;BME280;58572;48.110;19.838;2022-10-03T04:08:59;97628.91;;;10.12;83.41
70921;BME280;58572;48.110;19.838;2022-10-03T04:11:39;97626.13;;;10.22;85.55
70921;BME280;58572;48.110;19.838;2022-10-03T04:14:22;97626.72;;;10.14;84.00
70921;BME280;58572;48.110;19.838;2022-10-03T04:17:08;97632.72;;;10.11;85.70
70921;BME280;58572;48.110;19.838;2022-10-03T04:20:04;97633.75;;;10.20;85.63
70921;BME280;58572;48.110;19.838;2022-10-03T04:22:51;97639.72;;;10.17;85.35
70921;BME280;58572;48.110;19.838;2022-10-03T04:25:57;97641.09;;;9.52;84.92
70921;BME280;58572;48.110;19.838;2022-10-03T04:28:41;97634.53;;;9.92;85.72
70921;BME280;58572;48.110;19.838;2022-10-03T04:31:23;97639.84;;;9.39;84.33
70921;BME280;58572;48.110;19.838;2022-10-03T04:34:03;97632.38;;;9.89;86.11
70921;BME280;58572;48.110;19.838;2022-10-03T04:37:14;97636.69;;;9.95;85.21
70921;BME280;58572;48.110;19.838;2022-10-03T04:39:49;97632.97;;;9.86;83.15
70921;BME280;58572;48.110;19.838;2022-10-03T04:42:28;97630.44;;;9.95;85.21
70921;BME280;58572;48.110;19.838;2022-10-03T04:45:16;97628.59;;;9.90;85.19
70921;BME280;58572;48.110;19.838;2022-10-03T04:47:49;97641.03;;;9.96;85.20
70921;BME280;58572;48.110;19.838;2022-10-03T04:50:26;97532.50;;;9.23;84.87
70921;BME280;58572;48.110;19.838;2022-10-03T04:53:06;97654.28;;;9.69;86.00
70921;BME280;58572;48.110;19.838;2022-10-03T04:55:41;97610.94;;;9.58;85.57
70921;BME280;58572;48.110;19.838;2022-10-03T04:58:14;97652.50;;;9.88;84.87
70921;BME280;58572;48.110;19.838;2022-10-03T05:00:58;97608.09;;;9.40;85.37
70921;BME280;58572;48.110;19.838;2022-10-03T05:03:40;97645.44;;;9.87;85.38
70921;BME280;58572;48.110;19.838;2022-10-03T05:06:24;97644.88;;;9.56;86.02
70921;BME280;58572;48.110;19.838;2022-10-03T05:08:58;97643.91;;;9.76;85.25
70921;BME280;58572;48.110;19.838;2022-10-03T05:11:36;97640.09;;;9.77;84.72
70921;BME280;58572;48.110;19.838;2022-10-03T05:14:11;97647.69;;;9.80;85.35
70921;BME280;58572;48.110;19.838;2022-10-03T05:16:50;97650.53;;;9.59;85.15
70921;BME280;58572;48.110;19.838;2022-10-03T05:22:19;97656.59;;;9.46;86.65
70921;BME280;58572;48.110;19.838;2022-10-03T05:24:55;97667.88;;;9.64;86.03
70921;BME280;58572;48.110;19.838;2022-10-03T05:27:30;97602.47;;;9.26;84.88
70921;BME280;58572;48.110;19.838;2022-10-03T05:30:03;97667.56;;;9.70;85.41
70921;BME280;58572;48.110;19.838;2022-10-03T05:32:37;97662.78;;;9.57;85.04
70921;BME280;58572;48.110;19.838;2022-10-03T05:35:20;97659.63;;;9.79;84.63
70921;BME280;58572;48.110;19.838;2022-10-03T05:38:14;97658.28;;;9.37;86.58
70921;BME280;58572;48.110;19.838;2022-10-03T05:40:50;97665.94;;;9.69;85.29
70921;BME280;58572;48.110;19.838;2022-10-03T05:43:35;97662.38;;;9.74;85.11
70921;BME280;58572;48.110;19.838;2022-10-03T05:46:19;97614.09;;;9.37;85.21
70921;BME280;58572;48.110;19.838;2022-10-03T05:48:49;97561.88;;;9.11;85.31
70921;BME280;58572;48.110;19.838;2022-10-03T05:51:33;97664.81;;;9.75;85.36
70921;BME280;58572;48.110;19.838;2022-10-03T06:00:20;97670.59;;;9.64;85.38
70921;BME280;58572;48.110;19.838;2022-10-03T06:05:56;97694.38;;;9.77;84.99
70921;BME280;58572;48.110;19.838;2022-10-03T06:08:52;97695.78;;;9.74;85.20
70921;BME280;58572;48.110;19.838;2022-10-03T06:11:50;97688.72;;;9.24;86.30
70921;BME280;58572;48.110;19.838;2022-10-03T06:14:31;97679.56;;;9.64;85.68
70921;BME280;58572;48.110;19.838;2022-10-03T06:20:15;97692.78;;;9.76;84.98
70921;BME280;58572;48.110;19.838;2022-10-03T06:23:11;97691.75;;;9.67;85.66
70921;BME280;58572;48.110;19.838;2022-10-03T06:29:01;97696.09;;;9.68;85.28
70921;BME280;58572;48.110;19.838;2022-10-03T06:32:09;97709.41;;;9.64;85.07
70921;BME280;58572;48.110;19.838;2022-10-03T06:34:51;97701.44;;;9.78;85.21
70921;BME280;58572;48.110;19.838;2022-10-03T06:38:00;97697.56;;;9.89;84.66
70921;BME280;58572;48.110;19.838;2022-10-03T06:43:56;97712.69;;;9.61;86.16
70921;BME280;58572;48.110;19.838;2022-10-03T06:46:47;97713.81;;;9.55;86.14
70921;BME280;58572;48.110;19.838;2022-10-03T06:49:31;97700.78;;;9.57;85.49
70921;BME280;58572;48.110;19.838;2022-10-03T06:52:26;97711.75;;;9.81;85.42
70921;BME280;58572;48.110;19.838;2022-10-03T06:55:17;97710.16;;;9.75;85.28
70921;BME280;58572;48.110;19.838;2022-10-03T06:58:12;97711.56;;;9.67;86.13
70921;BME280;58572;48.110;19.838;2022-10-03T07:00:57;97670.19;;;9.46;85.67
70921;BME280;58572;48.110;19.838;2022-10-03T07:06:52;97696.63;;;9.70;87.19
70921;BME280;58572;48.110;19.838;2022-10-03T07:09:50;97701.28;;;9.64;86.99
70921;BME280;58572;48.110;19.838;2022-10-03T07:15:46;97694.81;;;9.94;85.46
70921;BME280;58572;48.110;19.838;2022-10-03T07:18:44;97656.09;;;9.44;86.21
70921;BME280;58572;48.110;19.838;2022-10-03T07:21:23;97701.94;;;9.85;86.67
70921;BME280;58572;48.110;19.838;2022-10-03T07:27:11;97651.53;;;9.74;85.33
70921;BME280;58572;48.110;19.838;2022-10-03T07:30:06;97705.00;;;10.07;85.34
70921;BME280;58572;48.110;19.838;2022-10-03T07:32:44;97706.88;;;10.12;85.80
70921;BME280;58572;48.110;19.838;2022-10-03T07:38:42;97712.84;;;10.48;84.23
70921;BME280;58572;48.110;19.838;2022-10-03T07:44:55;97714.09;;;10.61;83.41
70921;BME280;58572;48.110;19.838;2022-10-03T07:48:04;97711.53;;;10.69;83.27
70921;BME280;58572;48.110;19.838;2022-10-03T07:50:48;97721.09;;;10.91;82.62
70921;BME280;58572;48.110;19.838;2022-10-03T07:53:27;97678.41;;;10.67;84.19
70921;BME280;58572;48.110;19.838;2022-10-03T07:56:07;97710.63;;;11.03;83.38
70921;BME280;58572;48.110;19.838;2022-10-03T07:58:57;97687.72;;;10.85;82.78
70921;BME280;58572;48.110;19.838;2022-10-03T08:01:51;97705.19;;;11.03;82.64
70921;BME280;58572;48.110;19.838;2022-10-03T08:04:56;97716.13;;;11.40;81.68
70921;BME280;58572;48.110;19.838;2022-10-03T08:07:44;97651.59;;;11.03;81.31
70921;BME280;58572;48.110;19.838;2022-10-03T08:10:38;97712.28;;;11.84;79.85
70921;BME280;58572;48.110;19.838;2022-10-03T08:16:17;97718.44;;;12.08;78.10
70921;BME280;58572;48.110;19.838;2022-10-03T08:19:01;97718.25;;;11.86;78.48
70921;BME280;58572;48.110;19.838;2022-10-03T08:21:48;97658.78;;;11.56;78.06
70921;BME280;58572;48.110;19.838;2022-10-03T08:27:40;97687.63;;;11.94;78.38
70921;BME280;58572;48.110;19.838;2022-10-03T08:30:20;97728.25;;;12.09;78.37
70921;BME280;58572;48.110;19.838;2022-10-03T08:39:16;97707.84;;;12.86;76.58
70921;BME280;58572;48.110;19.838;2022-10-03T08:42:12;97710.06;;;12.97;74.71
70921;BME280;58572;48.110;19.838;2022-10-03T08:54:05;97707.22;;;12.61;76.60
70921;BME280;58572;48.110;19.838;2022-10-03T08:56:52;97706.81;;;12.82;75.01
70921;BME280;58572;48.110;19.838;2022-10-03T09:03:02;97710.47;;;12.44;71.72
70921;BME280;58572;48.110;19.838;2022-10-03T09:11:50;97697.31;;;12.33;73.19
70921;BME280;58572;48.110;19.838;2022-10-03T09:14:45;97704.91;;;12.68;70.05
70921;BME280;58572;48.110;19.838;2022-10-03T09:17:46;97714.91;;;13.41;68.05
70921;BME280;58572;48.110;19.838;2022-10-03T09:20:31;97706.72;;;13.91;67.50
70921;BME280;58572;48.110;19.838;2022-10-03T09:23:37;97718.03;;;13.98;67.32
70921;BME280;58572;48.110;19.838;2022-10-03T09:26:38;97704.59;;;14.33;63.73
70921;BME280;58572;48.110;19.838;2022-10-03T09:29:31;97698.66;;;14.31;64.35
70921;BME280;58572;48.110;19.838;2022-10-03T09:32:43;97710.19;;;13.83;66.83
70921;BME280;58572;48.110;19.838;2022-10-03T09:35:43;97703.00;;;13.37;68.38
70921;BME280;58572;48.110;19.838;2022-10-03T09:41:40;97696.22;;;13.07;67.76
70921;BME280;58572;48.110;19.838;2022-10-03T09:44:29;97706.44;;;13.02;67.33
70921;BME280;58572;48.110;19.838;2022-10-03T09:50:25;97720.16;;;12.97;66.76
70921;BME280;58572;48.110;19.838;2022-10-03T09:53:22;97710.97;;;12.93;68.10
70921;BME280;58572;48.110;19.838;2022-10-03T09:59:03;97714.66;;;13.79;65.47
70921;BME280;58572;48.110;19.838;2022-10-03T10:01:42;97705.47;;;13.75;63.46
70921;BME280;58572;48.110;19.838;2022-10-03T10:04:43;97705.22;;;13.22;65.03
70921;BME280;58572;48.110;19.838;2022-10-03T10:07:42;97712.63;;;13.21;62.63
70921;BME280;58572;48.110;19.838;2022-10-03T10:10:48;97708.44;;;13.37;63.95
70921;BME280;58572;48.110;19.838;2022-10-03T10:13:47;97708.84;;;13.94;64.79
70921;BME280;58572;48.110;19.838;2022-10-03T10:16:53;97702.94;;;14.68;61.97
70921;BME280;58572;48.110;19.838;2022-10-03T10:47:44;97719.81;;;13.81;62.77
70921;BME280;58572;48.110;19.838;2022-10-03T11:22:02;97719.28;;;13.56;64.25
70921;BME280;58572;48.110;19.838;2022-10-03T11:39:43;97715.13;;;14.17;60.30
70921;BME280;58572;48.110;19.838;2022-10-03T11:42:23;97721.94;;;13.84;63.05
70921;BME280;58572;48.110;19.838;2022-10-03T11:44:58;97713.03;;;13.78;62.59
70921;BME280;58572;48.110;19.838;2022-10-03T11:47:55;97717.94;;;13.67;63.25
70921;BME280;58572;48.110;19.838;2022-10-03T11:53:21;97727.53;;;13.65;64.41
70921;BME280;58572;48.110;19.838;2022-10-03T11:56:04;97669.47;;;13.95;60.79
70921;BME280;58572;48.110;19.838;2022-10-03T11:58:59;97732.63;;;14.16;62.35
70921;BME280;58572;48.110;19.838;2022-10-03T12:01:42;97724.34;;;13.85;63.03
70921;BME280;58572;48.110;19.838;2022-10-03T12:04:22;97723.50;;;13.98;62.82
70921;BME280;58572;48.110;19.838;2022-10-03T12:07:00;97720.25;;;14.41;62.07
70921;BME280;58572;48.110;19.838;2022-10-03T12:09:58;97721.31;;;14.76;61.02
70921;BME280;58572;48.110;19.838;2022-10-03T12:12:37;97729.00;;;14.65;60.64
70921;BME280;58572;48.110;19.838;2022-10-03T12:15:26;97732.84;;;14.64;62.10
70921;BME280;58572;48.110;19.838;2022-10-03T12:18:02;97734.75;;;14.19;60.01
70921;BME280;58572;48.110;19.838;2022-10-03T12:20:47;97741.38;;;13.82;63.28
70921;BME280;58572;48.110;19.838;2022-10-03T12:23:29;97723.19;;;13.50;63.56
70921;BME280;58572;48.110;19.838;2022-10-03T12:26:05;97730.88;;;13.62;64.31
70921;BME280;58572;48.110;19.838;2022-10-03T12:28:36;97633.75;;;12.92;64.21
70921;BME280;58572;48.110;19.838;2022-10-03T12:31:11;97694.47;;;13.89;63.47
70921;BME280;58572;48.110;19.838;2022-10-03T12:33:48;97659.69;;;14.03;62.12
70921;BME280;58572;48.110;19.838;2022-10-03T12:36:20;97732.00;;;14.86;62.92
70921;BME280;58572;48.110;19.838;2022-10-03T12:39:06;97663.22;;;14.48;62.35
70921;BME280;58572;48.110;19.838;2022-10-03T12:41:54;97717.59;;;14.05;63.30
70921;BME280;58572;48.110;19.838;2022-10-03T12:44:33;97706.84;;;14.53;62.65
70921;BME280;58572;48.110;19.838;2022-10-03T12:47:16;97728.63;;;14.58;62.12
70921;BME280;58572;48.110;19.838;2022-10-03T12:49:54;97730.72;;;14.39;61.87
70921;BME280;58572;48.110;19.838;2022-10-03T12:52:27;97723.75;;;14.78;63.32
70921;BME280;58572;48.110;19.838;2022-10-03T12:55:20;97729.22;;;14.78;62.84
70921;BME280;58572;48.110;19.838;2022-10-03T12:57:56;97730.22;;;15.21;64.50
70921;BME280;58572;48.110;19.838;2022-10-03T13:00:31;97741.16;;;14.82;63.45
70921;BME280;58572;48.110;19.838;2022-10-03T13:03:19;97737.28;;;15.14;62.87
70921;BME280;58572;48.110;19.838;2022-10-03T13:06:18;97715.53;;;15.17;63.43
70921;BME280;58572;48.110;19.838;2022-10-03T13:08:57;97739.41;;;14.86;63.28
70921;BME280;58572;48.110;19.838;2022-10-03T13:11:42;97735.84;;;15.25;61.36
70921;BME280;58572;48.110;19.838;2022-10-03T13:14:25;97680.31;;;14.85;62.36
70921;BME280;58572;48.110;19.838;2022-10-03T13:17:03;97732.25;;;15.07;62.77
70921;BME280;58572;48.110;19.838;2022-10-03T13:19:45;97741.09;;;15.04;63.50
70921;BME280;58572;48.110;19.838;2022-10-03T13:22:27;97749.25;;;14.42;64.39
70921;BME280;58572;48.110;19.838;2022-10-03T13:25:00;97763.53;;;14.17;64.37
70921;BME280;58572;48.110;19.838;2022-10-03T13:27:36;97743.16;;;14.23;64.29
70921;BME280;58572;48.110;19.838;2022-10-03T13:30:15;97756.06;;;14.09;63.23
70921;BME280;58572;48.110;19.838;2022-10-03T13:32:46;97751.06;;;13.88;65.13
70921;BME280;58572;48.110;19.838;2022-10-03T13:35:21;97749.44;;;13.87;65.60
70921;BME280;58572;48.110;19.838;2022-10-03T13:38:24;97749.06;;;13.80;65.15
70921;BME280;58572;48.110;19.838;2022-10-03T13:41:02;97744.75;;;13.65;65.58
70921;BME280;58572;48.110;19.838;2022-10-03T13:43:34;97666.00;;;13.04;65.51
70921;BME280;58572;48.110;19.838;2022-10-03T13:46:05;97708.16;;;13.25;66.36
70921;BME280;58572;48.110;19.838;2022-10-03T13:48:33;97747.69;;;13.41;66.13
70921;BME280;58572;48.110;19.838;2022-10-03T13:51:04;97743.03;;;13.42;66.11
70921;BME280;58572;48.110;19.838;2022-10-03T13:53:53;97731.19;;;13.47;66.51
70921;BME280;58572;48.110;19.838;2022-10-03T13:56:39;97734.34;;;13.54;67.58
70921;BME280;58572;48.110;19.838;2022-10-03T13:59:23;97733.31;;;13.63;67.41
70921;BME280;58572;48.110;19.838;2022-10-03T14:02:04;97730.88;;;13.62;67.76
70921;BME280;58572;48.110;19.838;2022-10-03T14:04:53;97723.00;;;13.47;67.94
70921;BME280;58572;48.110;19.838;2022-10-03T14:07:32;97726.44;;;13.38;67.84
70921;BME280;58572;48.110;19.838;2022-10-03T14:10:14;97720.81;;;13.21;67.98
70921;BME280;58572;48.110;19.838;2022-10-03T14:12:53;97728.50;;;13.19;68.66
70921;BME280;58572;48.110;19.838;2022-10-03T14:15:27;97722.41;;;13.22;68.14
70921;BME280;58572;48.110;19.838;2022-10-03T14:18:05;97721.78;;;13.11;68.94
70921;BME280;58572;48.110;19.838;2022-10-03T14:20:40;97714.00;;;13.05;68.57
70921;BME280;58572;48.110;19.838;2022-10-03T14:23:30;97725.94;;;12.95;68.85
70921;BME280;58572;48.110;19.838;2022-10-03T14:26:06;97729.66;;;12.99;68.81
70921;BME280;58572;48.110;19.838;2022-10-03T14:28:42;97706.41;;;12.74;68.85
70921;BME280;58572;48.110;19.838;2022-10-03T14:31:20;97744.22;;;12.81;69.32
70921;BME280;58572;48.110;19.838;2022-10-03T14:33:56;97748.66;;;12.77;69.54
70921;BME280;58572;48.110;19.838;2022-10-03T14:36:33;97739.34;;;12.78;69.91
70921;BME280;58572;48.110;19.838;2022-10-03T14:39:16;97606.66;;;11.81;68.26
70921;BME280;58572;48.110;19.838;2022-10-03T14:42:06;97769.06;;;12.79;69.04
70921;BME280;58572;48.110;19.838;2022-10-03T14:44:40;97768.81;;;12.62;69.25
70921;BME280;58572;48.110;19.838;2022-10-03T14:47:12;97762.16;;;12.68;69.94
70921;BME280;58572;48.110;19.838;2022-10-03T14:49:47;97772.66;;;12.61;69.18
70921;BME280;58572;48.110;19.838;2022-10-03T14:52:24;97766.78;;;12.54;69.21
70921;BME280;58572;48.110;19.838;2022-10-03T14:54:54;97774.88;;;12.59;68.74
70921;BME280;58572;48.110;19.838;2022-10-03T14:57:31;97771.34;;;12.59;68.88
70921;BME280;58572;48.110;19.838;2022-10-03T15:00:02;97778.13;;;12.61;68.43
70921;BME280;58572;48.110;19.838;2022-10-03T15:02:34;97694.69;;;11.95;70.00
70921;BME280;58572;48.110;19.838;2022-10-03T15:05:07;97775.56;;;12.51;68.57
70921;BME280;58572;48.110;19.838;2022-10-03T15:07:40;97783.88;;;12.41;69.89
70921;BME280;58572;48.110;19.838;2022-10-03T15:10:11;97756.19;;;12.34;68.93
70921;BME280;58572;48.110;19.838;2022-10-03T15:12:43;97767.00;;;12.39;69.58
70921;BME280;58572;48.110;19.838;2022-10-03T15:15:15;97715.44;;;11.91;70.36
70921;BME280;58572;48.110;19.838;2022-10-03T15:17:47;97776.88;;;12.35;71.05
70921;BME280;58572;48.110;19.838;2022-10-03T15:20:17;97771.53;;;12.30;70.30
70921;BME280;58572;48.110;19.838;2022-10-03T15:22:48;97759.75;;;12.15;69.91
70921;BME280;58572;48.110;19.838;2022-10-03T15:25:18;97763.22;;;12.21;70.31
70921;BME280;58572;48.110;19.838;2022-10-03T15:27:49;97723.25;;;11.98;70.30
70921;BME280;58572;48.110;19.838;2022-10-03T15:30:21;97710.47;;;11.79;70.34
70921;BME280;58572;48.110;19.838;2022-10-03T15:32:53;97771.97;;;12.18;70.42
70921;BME280;58572;48.110;19.838;2022-10-03T15:35:26;97780.53;;;12.11;71.27
70921;BME280;58572;48.110;19.838;2022-10-03T15:37:59;97782.75;;;12.09;70.39
70921;BME280;58572;48.110;19.838;2022-10-03T15:40:34;97782.53;;;12.06;70.92
70921;BME280;58572;48.110;19.838;2022-10-03T15:43:05;97789.44;;;11.98;71.16
70921;BME280;58572;48.110;19.838;2022-10-03T15:45:35;97773.63;;;12.00;70.63
70921;BME280;58572;48.110;19.838;2022-10-03T15:48:09;97745.16;;;11.69;71.29
70921;BME280;58572;48.110;19.838;2022-10-03T15:50:40;97773.63;;;12.00;71.24
70921;BME280;58572;48.110;19.838;2022-10-03T15:53:12;97770.16;;;11.95;70.75
70921;BME280;58572;48.110;19.838;2022-10-03T15:55:46;97782.44;;;11.92;71.40
70921;BME280;58572;48.110;19.838;2022-10-03T15:58:17;97767.28;;;11.86;71.43
70921;BME280;58572;48.110;19.838;2022-10-03T16:00:51;97783.03;;;11.89;70.39
70921;BME280;58572;48.110;19.838;2022-10-03T16:03:27;97787.47;;;11.85;71.74
70921;BME280;58572;48.110;19.838;2022-10-03T16:06:02;97784.22;;;11.83;71.65
70921;BME280;58572;48.110;19.838;2022-10-03T16:08:49;97750.47;;;11.60;72.22
70921;BME280;58572;48.110;19.838;2022-10-03T16:11:20;97561.03;;;10.36;71.29
70921;BME280;58572;48.110;19.838;2022-10-03T16:13:57;97700.38;;;11.37;71.27
70921;BME280;58572;48.110;19.838;2022-10-03T16:16:35;97789.84;;;11.68;71.89
70921;BME280;58572;48.110;19.838;2022-10-03T16:19:27;97780.19;;;11.57;72.61
70921;BME280;58572;48.110;19.838;2022-10-03T16:22:06;97650.63;;;10.70;72.88
70921;BME280;58572;48.110;19.838;2022-10-03T16:24:42;97783.25;;;11.50;72.00
70921;BME280;58572;48.110;19.838;2022-10-03T16:27:14;97732.88;;;11.29;73.02
70921;BME280;58572;48.110;19.838;2022-10-03T16:29:51;97790.03;;;11.52;73.19
70921;BME280;58572;48.110;19.838;2022-10-03T16:32:21;97754.19;;;11.22;72.46
70921;BME280;58572;48.110;19.838;2022-10-03T16:34:52;97802.13;;;11.41;73.29
70921;BME280;58572;48.110;19.838;2022-10-03T16:37:26;97792.63;;;11.39;72.25
70921;BME280;58572;48.110;19.838;2022-10-03T16:39:58;97792.91;;;11.37;72.88
70921;BME280;58572;48.110;19.838;2022-10-03T16:42:35;97801.00;;;11.47;72.38
70921;BME280;58572;48.110;19.838;2022-10-03T16:45:22;97803.94;;;11.27;73.32
70921;BME280;58572;48.110;19.838;2022-10-03T16:47:50;97798.72;;;11.31;73.46
70921;BME280;58572;48.110;19.838;2022-10-03T16:50:43;97798.25;;;11.24;73.49
70921;BME280;58572;48.110;19.838;2022-10-03T16:53:12;97802.66;;;11.19;73.95
70921;BME280;58572;48.110;19.838;2022-10-03T16:55:45;97803.97;;;11.22;73.86
70921;BME280;58572;48.110;19.838;2022-10-03T16:58:18;97702.03;;;10.43;73.65
70921;BME280;58572;48.110;19.838;2022-10-03T17:00:53;97692.03;;;10.33;73.19
70921;BME280;58572;48.110;19.838;2022-10-03T17:03:24;97746.59;;;10.71;74.37
70921;BME280;58572;48.110;19.838;2022-10-03T17:05:57;97816.03;;;11.16;73.59
70921;BME280;58572;48.110;19.838;2022-10-03T17:08:28;97824.00;;;11.07;74.43
70921;BME280;58572;48.110;19.838;2022-10-03T17:11:00;97814.81;;;11.03;74.56
70921;BME280;58572;48.110;19.838;2022-10-03T17:13:40;97808.56;;;11.03;74.30